Time;durP1;ratioP1;P1;durP2;ratioP2;P2;SDS_P1;SDS_P2;PMS_P1;PMS_P2;Temp;Humidity;BMP_temperature;BMP_pressure;BME280_temperature;BME280_humidity;BME280_pressure;Samples;Min_cycle;Max_cycle;Signal;HPM_P1;HPM_P2
2023/10/23 00:02:23;;;;;;;2.87;0.70;;;28.50;28.00;;;;;;5010768;28;20174;-74
2023/10/23 00:04:50;;;;;;;5.20;0.53;;;28.60;24.60;;;;;;5012217;28;20182;-76
2023/10/23 00:07:17;;;;;;;5.37;0.70;;;28.10;24.40;;;;;;5032993;28;20177;-74
2023/10/23 00:09:45;;;;;;;4.03;0.63;;;28.10;26.90;;;;;;5030652;28;20215;-73
2023/10/23 00:12:12;;;;;;;2.00;0.73;;;28.00;25.50;;;;;;5014553;28;20182;-73
2023/10/23 00:14:39;;;;;;;5.83;0.97;;;28.10;26.10;;;;;;5014380;28;20278;-73
2023/10/23 00:17:07;;;;;;;3.00;0.57;;;28.40;24.10;;;;;;5013938;28;20646;-75
2023/10/23 00:19:34;;;;;;;5.53;0.93;;;28.00;22.20;;;;;;5014599;28;20220;-68
2023/10/23 00:22:01;;;;;;;2.20;0.80;;;28.20;23.60;;;;;;5014383;28;20235;-73
2023/10/23 00:24:28;;;;;;;3.23;1.07;;;28.40;23.10;;;;;;5013975;28;20182;-73
2023/10/23 00:26:55;;;;;;;1.60;0.80;;;28.00;21.90;;;;;;5014303;28;20217;-73
2023/10/23 00:29:23;;;;;;;5.00;0.80;;;27.90;22.40;;;;;;5013668;28;20179;-74
2023/10/23 00:31:50;;;;;;;1.93;0.67;;;28.70;22.10;;;;;;5012259;28;20765;-72
2023/10/23 00:34:17;;;;;;;1.97;0.70;;;28.70;19.40;;;;;;5014374;28;20229;-73
2023/10/23 00:36:44;;;;;;;4.30;1.00;;;28.70;22.30;;;;;;5013474;28;20193;-69
2023/10/23 00:39:12;;;;;;;4.13;0.83;;;29.20;20.60;;;;;;5013912;28;20178;-70
2023/10/23 00:41:39;;;;;;;4.23;0.80;;;29.30;18.30;;;;;;5014089;28;20639;-70
2023/10/23 00:44:06;;;;;;;1.27;0.57;;;29.30;23.00;;;;;;5013168;28;20201;-69
2023/10/23 00:46:34;;;;;;;4.73;0.70;;;29.50;18.00;;;;;;5013212;28;20251;-74
2023/10/23 00:49:01;;;;;;;1.43;0.77;;;30.50;17.30;;;;;;5012528;28;20205;-70
2023/10/23 00:51:28;;;;;;;6.57;0.90;;;30.60;13.50;;;;;;5013567;28;20338;-69
2023/10/23 00:53:56;;;;;;;6.60;1.07;;;29.70;12.00;;;;;;5012897;28;20339;-71
2023/10/23 00:56:24;;;;;;;5.63;0.90;;;29.20;11.90;;;;;;5012612;28;20550;-73
2023/10/23 00:58:52;;;;;;;6.27;1.07;;;29.00;12.10;;;;;;5012572;28;20197;-72
2023/10/23 01:01:19;;;;;;;8.10;1.10;;;28.70;13.70;;;;;;5013173;28;20181;-71
2023/10/23 01:03:46;;;;;;;3.87;0.70;;;29.30;13.30;;;;;;5013555;28;20218;-70
2023/10/23 01:06:14;;;;;;;9.17;0.93;;;29.20;14.70;;;;;;5012660;28;20693;-69
2023/10/23 01:08:42;;;;;;;5.27;0.93;;;29.90;14.40;;;;;;5013006;28;20210;-72
2023/10/23 01:11:09;;;;;;;5.67;0.60;;;30.00;12.00;;;;;;5012212;28;20224;-72
2023/10/23 01:13:37;;;;;;;6.53;0.90;;;30.30;12.00;;;;;;5014161;28;20305;-75
2023/10/23 01:16:04;;;;;;;5.85;0.93;;;31.20;13.50;;;;;;5014028;28;20194;-72
2023/10/23 01:18:32;;;;;;;3.65;0.82;;;31.00;11.80;;;;;;5014753;28;20249;-72
2023/10/23 01:20:59;;;;;;;7.53;1.00;;;30.70;8.30;;;;;;5014760;28;20188;-71
2023/10/23 01:23:32;;;;;;;10.80;0.83;;;30.00;8.10;;;;;;5015449;28;20190;-74
2023/10/23 01:25:59;;;;;;;8.77;1.00;;;30.10;9.30;;;;;;5011150;28;20730;-71
2023/10/23 01:28:27;;;;;;;8.80;0.87;;;30.30;12.10;;;;;;4977081;28;20717;-74
2023/10/23 01:30:54;;;;;;;9.33;1.10;;;30.20;8.10;;;;;;5013222;28;20182;-74
2023/10/23 01:33:21;;;;;;;5.20;0.80;;;30.00;7.70;;;;;;5013464;28;20174;-76
2023/10/23 01:35:49;;;;;;;2.37;0.70;;;30.00;6.30;;;;;;5012569;28;20228;-73
2023/10/23 01:38:16;;;;;;;3.93;0.63;;;30.20;8.20;;;;;;5012797;28;20240;-72
2023/10/23 01:40:44;;;;;;;2.20;1.00;;;30.60;6.90;;;;;;5013013;28;20222;-72
2023/10/23 01:43:11;;;;;;;3.60;0.60;;;30.90;9.70;;;;;;5012115;28;20251;-74
2023/10/23 01:45:39;;;;;;;8.37;1.00;;;31.20;6.60;;;;;;5012540;28;22303;-73
2023/10/23 01:48:06;;;;;;;3.40;0.60;;;30.80;5.60;;;;;;5012941;28;20619;-74
2023/10/23 01:50:34;;;;;;;4.23;0.70;;;29.90;6.10;;;;;;5012290;28;20184;-69
2023/10/23 01:53:01;;;;;;;1.17;0.60;;;30.00;7.90;;;;;;5012553;28;20375;-70
2023/10/23 01:55:28;;;;;;;1.20;0.50;;;29.90;5.80;;;;;;5012263;28;20185;-72
2023/10/23 01:57:58;;;;;;;2.77;0.70;;;29.70;6.50;;;;;;5012097;28;20631;-72
2023/10/23 02:00:26;;;;;;;3.27;0.87;;;29.90;6.30;;;;;;5012306;28;20197;-71
2023/10/23 02:02:54;;;;;;;2.57;0.50;;;29.80;5.50;;;;;;5012477;28;20189;-71
2023/10/23 02:05:21;;;;;;;1.87;0.70;;;30.20;7.00;;;;;;5011768;28;20236;-72
2023/10/23 02:07:49;;;;;;;2.20;0.80;;;29.90;6.00;;;;;;5010884;28;20654;-71
2023/10/23 02:10:16;;;;;;;0.90;0.47;;;30.40;6.60;;;;;;5012319;28;20680;-72
2023/10/23 02:12:43;;;;;;;4.38;0.80;;;30.60;7.10;;;;;;5012012;28;20599;-71
2023/10/23 02:15:11;;;;;;;1.30;0.60;;;30.20;4.90;;;;;;5012197;28;20212;-69
2023/10/23 02:17:39;;;;;;;1.70;0.60;;;31.00;4.20;;;;;;5011496;28;20233;-73
2023/10/23 02:20:06;;;;;;;2.87;0.77;;;31.30;5.90;;;;;;5011469;28;20186;-73
2023/10/23 02:22:35;;;;;;;3.37;0.80;;;31.20;3.40;;;;;;5010933;28;20212;-71
2023/10/23 02:25:03;;;;;;;5.43;0.70;;;30.60;3.60;;;;;;5010453;28;20552;-71
2023/10/23 02:27:30;;;;;;;4.25;0.90;;;30.90;3.60;;;;;;5010090;28;20659;-71
2023/10/23 02:29:58;;;;;;;5.97;0.87;;;30.10;4.10;;;;;;5011994;28;20634;-69
2023/10/23 02:32:25;;;;;;;3.93;1.10;;;30.40;2.80;;;;;;5011794;28;20221;-72
2023/10/23 02:34:53;;;;;;;2.87;0.80;;;30.80;3.30;;;;;;5011499;28;20201;-70
2023/10/23 02:37:20;;;;;;;4.90;0.80;;;31.10;6.30;;;;;;5011237;28;20256;-74
2023/10/23 02:39:47;;;;;;;2.70;0.93;;;31.20;4.30;;;;;;5011949;28;20671;-72
2023/10/23 02:42:15;;;;;;;3.17;0.70;;;30.90;3.60;;;;;;5011368;28;20217;-69
2023/10/23 02:44:45;;;;;;;1.60;0.90;;;30.50;3.60;;;;;;5011719;28;20296;-71
2023/10/23 02:47:13;;;;;;;2.17;0.70;;;29.90;3.00;;;;;;5011465;28;20190;-71
2023/10/23 02:49:40;;;;;;;3.03;0.80;;;30.10;5.60;;;;;;5011399;28;20193;-70
2023/10/23 02:52:07;;;;;;;3.13;0.80;;;30.60;5.40;;;;;;5011743;28;20181;-69
2023/10/23 02:54:34;;;;;;;2.63;0.87;;;30.40;2.70;;;;;;5011738;28;20186;-70
2023/10/23 02:57:02;;;;;;;2.83;1.00;;;30.30;3.10;;;;;;5010966;28;20209;-73
2023/10/23 02:59:31;;;;;;;1.70;0.80;;;30.50;4.40;;;;;;5011734;28;20224;-73
2023/10/23 03:01:59;;;;;;;2.53;0.80;;;30.80;4.60;;;;;;5011840;28;20260;-72
2023/10/23 03:04:26;;;;;;;3.80;0.80;;;30.90;4.50;;;;;;5011484;28;20182;-71
2023/10/23 03:06:53;;;;;;;4.27;1.10;;;31.40;1.80;;;;;;5011490;28;20247;-71
2023/10/23 03:09:21;;;;;;;2.80;0.90;;;31.30;3.10;;;;;;5011714;28;20178;-72
2023/10/23 03:11:48;;;;;;;3.67;1.10;;;31.20;3.60;;;;;;5010926;28;20194;-70
2023/10/23 03:14:15;;;;;;;8.77;0.93;;;31.50;2.00;;;;;;5011628;28;20686;-71
2023/10/23 03:16:42;;;;;;;5.10;0.77;;;31.40;1.50;;;;;;5011055;28;20216;-70
2023/10/23 03:19:10;;;;;;;1.83;0.97;;;31.30;3.00;;;;;;5011140;28;20182;-74
2023/10/23 03:21:37;;;;;;;1.60;0.80;;;30.90;1.40;;;;;;5011436;28;20179;-73
2023/10/23 03:24:05;;;;;;;4.10;0.77;;;30.50;3.20;;;;;;5011731;28;20240;-72
2023/10/23 03:26:34;;;;;;;2.03;0.80;;;30.70;1.60;;;;;;5010439;28;20237;-72
2023/10/23 03:29:01;;;;;;;5.13;0.67;;;30.90;3.30;;;;;;5011403;28;20194;-70
2023/10/23 03:31:28;;;;;;;3.83;0.63;;;30.60;1.90;;;;;;5011498;28;20190;-73
2023/10/23 03:33:55;;;;;;;4.77;0.70;;;30.90;2.30;;;;;;5010699;28;20218;-73
2023/10/23 03:36:23;;;;;;;2.40;0.77;;;31.00;1.10;;;;;;5011175;28;20290;-70
2023/10/23 03:38:50;;;;;;;4.30;0.70;;;31.20;2.80;;;;;;5012167;28;20214;-72
2023/10/23 03:41:17;;;;;;;5.55;0.75;;;31.00;1.00;;;;;;5014483;28;20919;-72
2023/10/23 03:43:44;;;;;;;1.10;0.80;;;30.80;1.00;;;;;;5014695;28;20185;-71
2023/10/23 03:46:14;;;;;;;1.05;0.73;;;31.20;1.00;;;;;;5014611;28;20228;-72
2023/10/23 03:48:41;;;;;;;5.10;1.13;;;31.60;4.10;;;;;;5014659;28;20591;-76
2023/10/23 03:51:09;;;;;;;4.78;1.10;;;31.80;1.00;;;;;;5015043;28;20174;-75
2023/10/23 03:53:36;;;;;;;5.90;1.60;;;32.20;1.90;;;;;;5014528;28;20185;-73
2023/10/23 03:56:06;;;;;;;5.07;2.08;;;32.20;1.00;;;;;;5014269;28;20185;-71
2023/10/23 03:58:34;;;;;;;1.75;1.38;;;32.20;1.00;;;;;;5014785;28;20278;-72
2023/10/23 04:01:02;;;;;;;6.38;1.52;;;32.20;1.00;;;;;;5014923;28;20166;-73
2023/10/23 04:06:51;;;;;;;9.27;5.05;;;32.20;1.00;;;;;;4998897;28;20236;-72
2023/10/23 04:09:18;;;;;;;6.10;4.10;;;32.00;1.00;;;;;;5013733;28;20705;-72
2023/10/23 04:11:46;;;;;;;8.65;3.85;;;32.30;1.50;;;;;;5013417;28;20194;-69
2023/10/23 04:14:13;;;;;;;7.90;3.40;;;32.00;1.00;;;;;;5012851;28;20303;-71
2023/10/23 04:16:40;;;;;;;3.55;2.80;;;31.90;1.00;;;;;;5013490;28;20186;-72
2023/10/23 04:19:08;;;;;;;8.77;3.05;;;32.30;1.00;;;;;;5013679;28;20569;-71
2023/10/23 04:21:39;;;;;;;13.40;4.38;;;32.50;1.00;;;;;;5012199;28;20182;-72
2023/10/23 04:24:09;;;;;;;10.63;3.83;;;32.40;1.00;;;;;;5013717;28;20186;-72
2023/10/23 04:26:38;;;;;;;5.45;4.28;;;32.00;1.00;;;;;;5013103;28;20316;-72
2023/10/23 04:29:05;;;;;;;9.47;5.10;;;31.80;1.00;;;;;;5012579;28;20239;-69
2023/10/23 04:31:33;;;;;;;7.43;4.97;;;31.60;1.00;;;;;;5013205;28;20192;-70
2023/10/23 04:34:00;;;;;;;7.57;4.63;;;31.70;1.00;;;;;;5013251;28;20188;-73
2023/10/23 04:36:27;;;;;;;9.30;5.73;;;31.80;1.00;;;;;;5012723;28;20188;-72
2023/10/23 04:44:52;;;;;;;9.20;5.47;;;31.90;1.00;;;;;;4968674;28;20746;-71
2023/10/23 04:47:19;;;;;;;7.80;4.57;;;32.20;1.00;;;;;;4971784;28;20187;-73
2023/10/23 04:49:48;;;;;;;5.45;4.40;;;32.60;1.00;;;;;;4973335;28;20187;-69
2023/10/23 04:52:16;;;;;;;9.15;5.10;;;32.50;1.00;;;;;;4974062;28;20528;-70
2023/10/23 04:54:43;;;;;;;7.47;5.47;;;32.40;1.00;;;;;;4974820;28;20179;-72
2023/10/23 04:57:11;;;;;;;11.13;5.20;;;32.40;1.00;;;;;;4974267;28;20580;-72
2023/10/23 04:59:38;;;;;;;9.60;5.38;;;32.40;1.00;;;;;;4974224;28;20273;-71
2023/10/23 05:02:05;;;;;;;7.90;4.30;;;32.20;1.00;;;;;;4974416;28;20214;-70
2023/10/23 05:04:32;;;;;;;7.80;4.07;;;32.10;1.00;;;;;;4974565;28;20194;-72
2023/10/23 05:07:00;;;;;;;8.27;4.50;;;32.30;1.00;;;;;;4973920;28;20542;-72
2023/10/23 05:09:27;;;;;;;11.07;4.70;;;32.50;1.00;;;;;;4974242;28;20175;-73
2023/10/23 05:11:54;;;;;;;7.97;4.47;;;32.30;1.00;;;;;;4976192;28;20187;-71
2023/10/23 05:14:21;;;;;;;7.47;4.22;;;32.00;1.00;;;;;;4975813;28;20187;-73
2023/10/23 05:16:49;;;;;;;10.77;4.30;;;31.40;1.00;;;;;;4975777;28;20188;-71
2023/10/23 05:19:16;;;;;;;5.63;3.67;;;31.50;1.00;;;;;;4975101;28;20206;-73
2023/10/23 05:21:43;;;;;;;4.38;3.33;;;31.60;1.00;;;;;;4975217;28;20183;-73
2023/10/23 05:24:10;;;;;;;7.38;3.22;;;31.70;1.00;;;;;;4975177;28;20602;-71
2023/10/23 05:26:38;;;;;;;9.77;3.58;;;31.70;1.00;;;;;;4974961;28;20191;-71
2023/10/23 05:29:05;;;;;;;4.85;3.30;;;31.60;1.00;;;;;;4975164;28;20191;-73
2023/10/23 05:31:32;;;;;;;4.63;2.80;;;31.70;1.00;;;;;;4991582;28;20186;-73
2023/10/23 05:33:59;;;;;;;9.75;3.25;;;31.70;1.00;;;;;;4995124;28;20179;-73
2023/10/23 05:36:27;;;;;;;4.03;2.97;;;31.80;1.00;;;;;;4995153;28;20174;-73
2023/10/23 05:38:54;;;;;;;7.28;2.55;;;31.40;1.00;;;;;;4995029;28;20225;-73
2023/10/23 05:41:21;;;;;;;7.07;3.20;;;31.50;1.00;;;;;;4994827;28;20193;-73
2023/10/23 05:43:49;;;;;;;4.75;2.75;;;31.20;1.00;;;;;;4994843;28;20687;-73
2023/10/23 05:46:20;;;;;;;6.50;2.72;;;31.40;1.00;;;;;;4994415;28;20234;-73
2023/10/23 05:48:48;;;;;;;4.70;2.65;;;31.60;1.00;;;;;;4994793;28;20202;-74
2023/10/23 05:51:16;;;;;;;3.25;2.60;;;31.80;1.00;;;;;;4993560;28;20175;-74
2023/10/23 05:53:43;;;;;;;8.73;2.78;;;31.50;1.00;;;;;;4994817;28;20178;-73
2023/10/23 05:56:10;;;;;;;7.47;2.60;;;31.70;1.00;;;;;;4994467;28;20186;-74
2023/10/23 05:58:37;;;;;;;4.32;2.65;;;31.70;1.00;;;;;;4994692;28;20239;-73
2023/10/23 06:01:12;;;;;;;3.65;2.30;;;31.70;1.00;;;;;;4994456;28;20170;-72
2023/10/23 06:03:39;;;;;;;8.07;3.00;;;31.80;1.00;;;;;;4994404;28;20265;-72
2023/10/23 06:06:07;;;;;;;6.80;1.65;;;31.90;1.00;;;;;;4994657;28;20178;-72
2023/10/23 06:08:35;;;;;;;4.43;1.55;;;31.80;4.80;;;;;;4994376;28;20182;-72
2023/10/23 06:11:02;;;;;;;6.63;1.85;;;30.80;13.40;;;;;;4993992;28;20185;-73
2023/10/23 06:13:29;;;;;;;12.90;2.78;;;30.50;17.80;;;;;;4992796;28;20269;-72
2023/10/23 06:16:09;;;;;;;3.93;1.57;;;30.40;17.70;;;;;;4994149;28;20181;-72
2023/10/23 06:18:38;;;;;;;5.43;1.37;;;30.20;20.20;;;;;;4994407;28;20245;-72
2023/10/23 06:21:07;;;;;;;5.10;1.00;;;29.90;18.70;;;;;;4993946;28;20198;-72
2023/10/23 06:23:40;;;;;;;4.70;1.40;;;29.80;20.70;;;;;;4994137;28;20221;-72
2023/10/23 06:26:10;;;;;;;3.80;1.20;;;29.70;21.90;;;;;;4993826;28;20171;-72
2023/10/23 06:28:37;;;;;;;6.37;1.40;;;29.60;20.70;;;;;;4994047;28;20257;-73
2023/10/23 06:31:09;;;;;;;2.93;1.33;;;29.40;20.20;;;;;;4994011;28;20175;-72
2023/10/23 06:33:38;;;;;;;2.97;1.60;;;29.50;19.20;;;;;;4994249;28;20175;-71
2023/10/23 06:36:07;;;;;;;7.30;1.47;;;29.00;19.30;;;;;;4994095;28;20183;-74
2023/10/23 06:38:35;;;;;;;8.03;2.00;;;28.90;21.40;;;;;;4993837;28;20215;-72
2023/10/23 06:41:06;;;;;;;3.80;1.40;;;28.80;20.10;;;;;;4993155;28;20174;-72
2023/10/23 06:43:35;;;;;;;4.93;1.30;;;28.70;20.40;;;;;;4993987;28;20179;-73
2023/10/23 06:46:03;;;;;;;5.83;1.33;;;28.70;21.50;;;;;;4993755;28;20227;-73
2023/10/23 06:48:31;;;;;;;6.10;1.03;;;28.50;21.00;;;;;;4993923;28;20189;-73
2023/10/23 06:50:59;;;;;;;5.17;1.00;;;28.10;21.50;;;;;;4993787;28;20254;-73
2023/10/23 06:53:27;;;;;;;4.47;0.87;;;28.00;21.20;;;;;;4993788;28;20558;-73
2023/10/23 06:55:55;;;;;;;6.20;1.10;;;27.80;22.30;;;;;;4993946;28;20203;-72
2023/10/23 06:58:23;;;;;;;3.93;0.80;;;27.50;22.70;;;;;;4993794;28;20214;-73
2023/10/23 07:00:50;;;;;;;10.20;1.43;;;27.40;22.60;;;;;;4993774;28;20177;-72
2023/10/23 07:03:17;;;;;;;6.27;0.80;;;27.40;22.60;;;;;;4993695;28;20187;-73
2023/10/23 07:05:45;;;;;;;4.13;1.27;;;27.20;22.80;;;;;;4993611;28;20167;-72
2023/10/23 07:08:13;;;;;;;4.30;1.13;;;27.00;22.60;;;;;;4993686;28;20175;-72
2023/10/23 07:10:40;;;;;;;4.00;0.93;;;26.90;23.70;;;;;;4993695;28;20214;-73
2023/10/23 07:13:07;;;;;;;3.47;0.90;;;26.80;24.60;;;;;;4993709;28;20198;-73
2023/10/23 07:15:35;;;;;;;2.37;0.70;;;26.80;23.90;;;;;;4997554;28;20206;-72
2023/10/23 07:18:04;;;;;;;4.00;1.13;;;26.80;24.80;;;;;;4997648;28;20214;-73
2023/10/23 07:20:32;;;;;;;7.97;1.43;;;26.80;25.90;;;;;;4998054;28;20627;-72
2023/10/23 07:22:59;;;;;;;5.63;1.27;;;26.70;26.20;;;;;;4997614;28;20193;-72
2023/10/23 07:25:26;;;;;;;4.47;0.77;;;26.70;27.10;;;;;;4997177;28;20266;-71
2023/10/23 07:27:54;;;;;;;7.13;1.30;;;26.50;26.50;;;;;;4997468;28;20553;-72
2023/10/23 07:30:24;;;;;;;1.77;0.80;;;26.30;27.10;;;;;;4997389;28;20186;-72
2023/10/23 07:32:51;;;;;;;3.57;0.80;;;26.30;27.80;;;;;;4997250;28;20194;-73
2023/10/23 07:35:20;;;;;;;2.17;0.80;;;26.10;28.80;;;;;;4997399;28;20289;-73
2023/10/23 07:37:47;;;;;;;6.53;1.10;;;25.70;30.00;;;;;;4997281;28;20752;-73
2023/10/23 07:40:15;;;;;;;3.23;0.97;;;25.50;33.20;;;;;;4997232;28;20640;-71
2023/10/23 07:42:43;;;;;;;1.13;0.80;;;25.30;36.10;;;;;;4996962;28;20277;-72
2023/10/23 07:45:10;;;;;;;3.57;1.00;;;25.00;38.00;;;;;;4996828;28;20230;-73
2023/10/23 07:47:37;;;;;;;2.40;0.80;;;24.80;40.20;;;;;;4997066;28;20182;-72
2023/10/23 07:50:05;;;;;;;4.80;0.90;;;24.60;41.20;;;;;;4997107;28;20206;-73
2023/10/23 07:52:33;;;;;;;2.60;1.10;;;24.40;44.10;;;;;;4997075;28;20285;-74
2023/10/23 07:55:00;;;;;;;4.50;1.67;;;24.10;46.50;;;;;;4996900;28;20209;-71
2023/10/23 07:57:30;;;;;;;1.53;0.77;;;24.00;49.00;;;;;;4995698;28;20217;-72
2023/10/23 07:59:57;;;;;;;3.63;1.33;;;23.70;52.00;;;;;;4996813;28;20674;-72
2023/10/23 08:02:25;;;;;;;2.43;0.90;;;23.60;55.80;;;;;;4996892;28;20210;-74
2023/10/23 08:04:52;;;;;;;3.07;1.20;;;23.30;57.90;;;;;;4996742;28;20183;-72
2023/10/23 08:07:19;;;;;;;3.17;1.13;;;23.20;62.30;;;;;;4996794;28;20198;-72
2023/10/23 08:09:46;;;;;;;6.63;1.07;;;23.10;68.70;;;;;;4996626;28;20636;-72
2023/10/23 08:12:14;;;;;;;2.97;1.30;;;22.90;76.50;;;;;;4996782;28;20182;-72
2023/10/23 08:14:41;;;;;;;5.10;1.13;;;22.80;84.40;;;;;;4996467;28;20178;-74
2023/10/23 08:17:08;;;;;;;4.87;1.20;;;22.80;90.50;;;;;;4995613;28;20697;-73
2023/10/23 08:19:35;;;;;;;3.60;1.67;;;22.70;93.30;;;;;;4996595;28;20187;-73
2023/10/23 08:22:03;;;;;;;2.97;1.10;;;22.60;96.10;;;;;;4996774;28;20213;-73
2023/10/23 08:24:30;;;;;;;4.67;1.37;;;22.50;96.60;;;;;;4996365;28;20186;-72
2023/10/23 08:26:57;;;;;;;4.43;1.10;;;22.50;98.30;;;;;;4995432;28;20179;-72
2023/10/23 08:29:25;;;;;;;5.40;1.20;;;22.40;99.00;;;;;;4996359;28;20178;-74
2023/10/23 08:31:53;;;;;;;4.37;1.10;;;22.30;99.70;;;;;;4996501;28;20190;-73
2023/10/23 08:34:23;;;;;;;2.53;1.13;;;22.30;99.90;;;;;;4996510;28;20589;-72
2023/10/23 08:36:50;;;;;;;6.10;1.10;;;22.20;99.90;;;;;;4996296;28;20562;-71
2023/10/23 08:39:19;;;;;;;2.77;0.90;;;22.10;99.90;;;;;;4996221;28;20189;-73
2023/10/23 08:41:49;;;;;;;6.17;1.27;;;22.10;99.90;;;;;;4996853;28;20711;-74
2023/10/23 08:44:17;;;;;;;4.63;1.47;;;22.10;99.90;;;;;;4994810;28;20190;-73
2023/10/23 08:46:45;;;;;;;3.23;1.50;;;22.10;99.90;;;;;;4996369;28;20245;-73
2023/10/23 08:49:12;;;;;;;3.73;1.30;;;22.00;99.90;;;;;;4995955;28;20258;-72
2023/10/23 08:51:45;;;;;;;3.67;1.00;;;21.90;99.90;;;;;;4996162;28;20596;-73
2023/10/23 08:54:20;;;;;;;2.97;0.97;;;21.90;99.90;;;;;;4996004;28;20179;-74
2023/10/23 08:56:57;;;;;;;2.30;1.10;;;21.80;99.90;;;;;;4995945;28;20281;-73
2023/10/23 08:59:25;;;;;;;4.77;1.40;;;21.70;99.90;;;;;;4996118;28;20174;-72
2023/10/23 09:01:52;;;;;;;5.27;1.10;;;21.60;99.90;;;;;;4996024;28;20678;-73
2023/10/23 09:04:19;;;;;;;2.47;1.17;;;21.70;99.90;;;;;;4995619;28;20210;-73
2023/10/23 09:06:47;;;;;;;3.73;1.23;;;21.60;99.90;;;;;;4995852;28;20242;-72
2023/10/23 09:09:16;;;;;;;2.80;1.17;;;21.50;99.90;;;;;;4995715;28;20225;-73
2023/10/23 09:11:49;;;;;;;3.17;1.43;;;21.40;99.90;;;;;;4995922;28;20202;-73
2023/10/23 09:14:27;;;;;;;4.30;1.10;;;21.40;99.90;;;;;;4996287;28;20197;-73
2023/10/23 09:16:56;;;;;;;9.97;1.60;;;21.20;99.90;;;;;;4995646;28;20233;-72
2023/10/23 09:19:37;;;;;;;6.37;1.50;;;21.20;99.90;;;;;;4994316;28;20679;-72
2023/10/23 09:22:06;;;;;;;5.93;1.30;;;21.10;99.90;;;;;;4995577;28;20229;-72
2023/10/23 09:24:34;;;;;;;9.63;1.60;;;21.10;99.90;;;;;;4995534;28;20191;-74
2023/10/23 09:27:01;;;;;;;3.43;1.13;;;21.10;99.90;;;;;;4995399;28;20174;-73
2023/10/23 09:29:29;;;;;;;4.70;1.60;;;21.00;99.90;;;;;;4995408;28;20257;-73
2023/10/23 09:32:00;;;;;;;4.57;1.30;;;21.00;99.90;;;;;;4995439;28;20217;-74
2023/10/23 09:34:29;;;;;;;7.57;1.63;;;20.90;99.90;;;;;;4995360;28;20182;-72
2023/10/23 09:36:57;;;;;;;7.40;1.97;;;20.90;99.90;;;;;;4994811;28;20174;-73
2023/10/23 09:39:24;;;;;;;3.33;1.40;;;20.90;99.90;;;;;;4995296;28;20189;-73
2023/10/23 09:41:52;;;;;;;5.97;1.47;;;20.80;99.90;;;;;;4995093;28;20178;-71
2023/10/23 09:44:19;;;;;;;2.50;1.27;;;20.80;99.90;;;;;;4994676;28;20190;-73
2023/10/23 09:46:48;;;;;;;3.97;1.47;;;20.70;99.90;;;;;;4995036;28;20182;-72
2023/10/23 09:49:16;;;;;;;4.43;1.10;;;20.70;99.90;;;;;;4995034;28;20240;-73
2023/10/23 09:51:47;;;;;;;4.17;1.70;;;20.70;99.90;;;;;;4995170;28;20674;-73
2023/10/23 09:54:22;;;;;;;6.77;1.80;;;20.50;99.90;;;;;;4994869;28;20167;-71
2023/10/23 09:56:55;;;;;;;5.13;1.43;;;20.50;99.90;;;;;;4994841;28;20233;-72
2023/10/23 09:59:39;;;;;;;5.90;1.97;;;20.50;99.90;;;;;;4994796;28;20186;-71
2023/10/23 10:02:09;;;;;;;4.20;1.63;;;20.50;99.90;;;;;;4994955;28;20170;-73
2023/10/23 10:05:16;;;;;;;6.80;2.10;;;20.50;99.90;;;;;;4993281;28;20186;-71
2023/10/23 10:07:47;;;;;;;2.80;1.30;;;20.40;99.90;;;;;;4991887;28;20213;-73
2023/10/23 10:10:15;;;;;;;3.63;1.50;;;20.40;99.90;;;;;;4993559;28;20185;-72
2023/10/23 10:12:44;;;;;;;6.30;1.97;;;20.30;99.90;;;;;;4994702;28;20170;-72
2023/10/23 10:15:12;;;;;;;5.93;1.53;;;20.10;99.90;;;;;;4994418;28;20237;-73
2023/10/23 10:17:40;;;;;;;4.80;1.37;;;20.00;99.90;;;;;;4994335;28;20213;-71
2023/10/23 10:20:10;;;;;;;4.53;1.30;;;19.90;99.90;;;;;;4994653;28;20191;-71
2023/10/23 10:22:42;;;;;;;5.40;1.43;;;19.80;99.90;;;;;;4994449;28;20548;-71
2023/10/23 10:25:11;;;;;;;2.60;1.50;;;19.70;99.90;;;;;;4994117;28;20171;-72
2023/10/23 10:27:38;;;;;;;3.17;1.50;;;19.70;99.90;;;;;;4994268;28;20648;-72
2023/10/23 10:30:26;;;;;;;3.37;1.50;;;19.60;99.90;;;;;;4994244;28;20173;-72
2023/10/23 10:33:01;;;;;;;6.23;1.60;;;19.60;99.90;;;;;;4994151;28;20232;-72
2023/10/23 10:35:28;;;;;;;3.63;1.50;;;19.50;99.90;;;;;;4994260;28;20220;-71
2023/10/23 10:38:00;;;;;;;3.43;1.43;;;19.50;99.90;;;;;;4994144;28;20230;-71
2023/10/23 10:40:28;;;;;;;3.27;1.63;;;19.40;99.90;;;;;;4994317;28;20261;-72
2023/10/23 10:42:57;;;;;;;5.00;1.17;;;19.40;99.90;;;;;;4994064;28;20181;-70
2023/10/23 10:45:27;;;;;;;4.10;1.33;;;19.30;99.90;;;;;;4994092;28;20223;-71
2023/10/23 10:47:54;;;;;;;9.23;1.73;;;19.20;99.90;;;;;;4994538;28;20171;-71
2023/10/23 10:50:36;;;;;;;3.70;1.13;;;19.20;99.90;;;;;;4993722;28;20182;-71
2023/10/23 10:53:06;;;;;;;3.00;1.27;;;19.10;99.90;;;;;;4994006;28;20205;-71
2023/10/23 10:55:35;;;;;;;3.40;1.40;;;19.10;99.90;;;;;;4993748;28;20226;-71
2023/10/23 10:58:04;;;;;;;6.07;1.30;;;19.10;99.90;;;;;;4992574;28;20215;-70
2023/10/23 11:00:37;;;;;;;7.37;2.10;;;19.10;99.90;;;;;;4993869;28;20578;-71
2023/10/23 11:03:06;;;;;;;5.43;1.50;;;18.90;99.90;;;;;;4993737;28;20187;-71
2023/10/23 11:05:34;;;;;;;8.10;1.50;;;18.90;99.90;;;;;;4993891;28;20171;-71
2023/10/23 11:08:03;;;;;;;5.10;1.77;;;18.80;99.90;;;;;;4993996;28;20219;-71
2023/10/23 11:10:31;;;;;;;5.23;1.50;;;18.70;99.90;;;;;;4993722;28;20173;-71
2023/10/23 11:12:59;;;;;;;3.40;1.50;;;18.60;99.90;;;;;;4993675;28;20177;-71
2023/10/23 11:15:27;;;;;;;4.47;1.40;;;18.60;99.90;;;;;;4993632;28;21423;-71
2023/10/23 11:17:55;;;;;;;4.43;1.57;;;18.60;99.90;;;;;;4992353;28;20218;-71
2023/10/23 11:20:22;;;;;;;5.57;1.57;;;18.50;99.90;;;;;;4993637;28;20282;-71
2023/10/23 11:22:49;;;;;;;5.00;1.50;;;18.50;99.90;;;;;;4993750;28;20551;-71
2023/10/23 11:25:17;;;;;;;4.33;1.50;;;18.40;99.90;;;;;;4993559;28;20173;-71
2023/10/23 11:27:49;;;;;;;3.53;1.33;;;18.30;99.90;;;;;;4985978;28;20187;-72
2023/10/23 11:30:17;;;;;;;4.90;2.10;;;18.30;99.90;;;;;;4973091;28;20179;-69
2023/10/23 11:32:47;;;;;;;7.13;1.63;;;18.20;99.90;;;;;;4973558;28;20179;-71
2023/10/23 11:35:14;;;;;;;6.50;1.60;;;18.20;99.90;;;;;;4973560;28;20679;-71
2023/10/23 11:37:42;;;;;;;5.10;2.17;;;18.20;99.90;;;;;;4972560;28;20202;-71
2023/10/23 11:40:11;;;;;;;4.33;1.40;;;18.20;99.90;;;;;;4973295;28;20192;-70
2023/10/23 11:42:49;;;;;;;5.43;1.47;;;18.10;99.90;;;;;;4972696;28;20181;-69
2023/10/23 11:45:17;;;;;;;7.83;1.40;;;18.10;99.90;;;;;;4969460;28;20338;-69
2023/10/23 11:47:45;;;;;;;3.40;1.77;;;18.20;99.90;;;;;;4973683;28;20191;-69
2023/10/23 11:50:13;;;;;;;7.63;1.77;;;18.20;99.90;;;;;;4973801;28;20229;-69
2023/10/23 11:52:44;;;;;;;4.47;1.87;;;18.20;99.90;;;;;;4973393;28;20253;-69
2023/10/23 11:55:16;;;;;;;5.40;1.50;;;18.10;99.90;;;;;;4973925;28;20599;-69
2023/10/23 11:57:50;;;;;;;5.27;1.50;;;18.10;99.90;;;;;;4973410;28;20225;-69
2023/10/23 12:00:20;;;;;;;3.80;1.40;;;18.10;99.90;;;;;;4974417;28;20208;-70
2023/10/23 12:02:48;;;;;;;6.83;1.40;;;18.10;99.90;;;;;;4977169;28;20239;-70
2023/10/23 12:05:22;;;;;;;6.67;1.83;;;18.00;99.90;;;;;;4976900;28;20187;-69
2023/10/23 12:07:56;;;;;;;3.53;1.37;;;18.00;99.90;;;;;;4976944;28;20195;-69
2023/10/23 12:10:25;;;;;;;4.53;1.43;;;18.00;99.90;;;;;;4976721;28;20181;-69
2023/10/23 12:12:54;;;;;;;4.43;1.83;;;18.00;99.90;;;;;;4977179;28;20234;-69
2023/10/23 12:15:27;;;;;;;8.60;2.20;;;17.90;99.90;;;;;;4976781;28;20195;-69
2023/10/23 12:17:54;;;;;;;5.00;2.23;;;17.90;99.90;;;;;;4977302;28;20219;-69
2023/10/23 12:20:21;;;;;;;3.57;1.37;;;17.70;99.90;;;;;;4976862;28;20186;-69
2023/10/23 12:22:50;;;;;;;6.27;1.40;;;17.70;99.90;;;;;;4976481;28;20554;-69
2023/10/23 12:25:17;;;;;;;6.77;2.00;;;17.60;99.90;;;;;;4976854;28;20294;-69
2023/10/23 12:27:45;;;;;;;4.03;1.80;;;17.60;99.90;;;;;;4976639;28;20218;-70
2023/10/23 12:30:16;;;;;;;4.60;1.70;;;17.50;99.90;;;;;;4976576;28;20724;-68
2023/10/23 12:32:43;;;;;;;5.63;1.63;;;17.40;99.90;;;;;;4976425;28;20186;-68
2023/10/23 12:35:13;;;;;;;4.50;1.67;;;17.40;99.90;;;;;;4976784;28;20183;-69
2023/10/23 12:37:40;;;;;;;4.93;1.50;;;17.30;99.90;;;;;;4976493;28;20211;-69
2023/10/23 12:40:09;;;;;;;5.20;1.60;;;17.30;99.90;;;;;;4976399;28;20243;-69
2023/10/23 12:42:37;;;;;;;3.23;1.47;;;17.30;99.90;;;;;;4976417;28;20679;-69
2023/10/23 12:45:04;;;;;;;4.77;1.80;;;17.30;99.90;;;;;;4976045;28;20226;-68
2023/10/23 12:47:33;;;;;;;3.47;1.80;;;17.30;99.90;;;;;;4976593;28;20186;-70
2023/10/23 12:50:00;;;;;;;3.53;1.67;;;17.20;99.90;;;;;;4976341;28;20202;-68
2023/10/23 12:52:27;;;;;;;4.10;1.50;;;17.10;99.90;;;;;;4976163;28;20680;-69
2023/10/23 12:54:55;;;;;;;5.60;1.47;;;17.10;99.90;;;;;;4976623;28;20672;-69
2023/10/23 12:57:22;;;;;;;6.47;1.93;;;17.00;99.90;;;;;;4976006;28;20230;-68
2023/10/23 12:59:49;;;;;;;4.67;1.43;;;17.00;99.90;;;;;;4976810;28;20195;-70
2023/10/23 13:02:19;;;;;;;5.07;1.40;;;16.90;99.90;;;;;;4976126;28;20219;-70
2023/10/23 13:04:47;;;;;;;4.57;1.30;;;16.90;99.90;;;;;;4975974;28;20191;-68
2023/10/23 13:07:14;;;;;;;9.03;2.43;;;16.90;99.90;;;;;;4976290;28;20649;-68